• 1
  • 2
  • 1

 

 

 
NEU! ab. 1.4.
Nortel Info 128,740 MHz

WebCam

  
Kamera Halle
Kamera Vorfeld
Wetter EDDS

METAR

EDDS 190520Z 03008KT 9999 FEW022 BKN033 M01/M08 Q1014 =
EDDS 190500Z 1906/2006 03009KT 9999 SCT025 TEMPO 2000/2006 BKN014


TAF

EDDS 190500Z 1906/2006 03009KT 9999 SCT025 TEMPO 2000/2006 BKN014 =


SR/SS

06:35 / 15:37 UTC
(EDSO 19-11-2018)